Time;durP1;ratioP1;P1;durP2;ratioP2;P2;SDS_P1;SDS_P2;PMS_P1;PMS_P2;Temp;Humidity;BMP_temperature;BMP_pressure;BME280_temperature;BME280_humidity;BME280_pressure;Samples;Min_cycle;Max_cycle;Signal;HPM_P1;HPM_P2
2022/11/10 00:01:23;;;;;;;61.27;18.73;;;11.30;99.90;;;9.14;100.00;100375.56;10514548;28;20061;-83
2022/11/10 00:06:26;;;;;;;50.50;15.90;;;11.30;99.90;;;9.13;100.00;100377.38;10492833;28;20541;-83
2022/11/10 00:11:29;;;;;;;68.40;20.93;;;11.30;99.90;;;9.12;100.00;100375.72;10532146;28;20057;-83
2022/11/10 00:21:53;;;;;;;74.13;20.48;;;11.30;99.90;;;9.02;100.00;100389.06;10460179;28;20071;-83
2022/11/10 00:26:56;;;;;;;80.30;20.93;;;11.20;99.90;;;9.03;100.00;100395.19;10464397;28;20057;-83
2022/11/10 00:31:59;;;;;;;77.13;20.10;;;11.20;99.90;;;9.01;100.00;100399.81;10472568;28;20111;-83
2022/11/10 00:37:03;;;;;;;72.10;20.33;;;11.20;99.90;;;8.99;100.00;100397.31;10521006;28;20504;-82
2022/11/10 00:42:06;;;;;;;74.37;19.47;;;11.20;99.90;;;8.99;100.00;100393.81;10473755;28;20136;-83
2022/11/10 00:47:09;;;;;;;81.70;19.80;;;11.20;99.90;;;9.00;100.00;100396.34;10522546;28;20061;-83
2022/11/10 00:52:12;;;;;;;64.50;18.67;;;11.20;99.90;;;9.01;100.00;100410.44;10513933;28;20092;-83
2022/11/10 00:57:15;;;;;;;66.53;18.83;;;11.10;99.90;;;8.97;100.00;100399.28;10503859;28;20116;-83
2022/11/10 01:02:18;;;;;;;57.87;18.23;;;11.10;99.90;;;8.97;100.00;100388.69;10520097;28;20088;-83
2022/11/10 01:07:21;;;;;;;51.50;15.97;;;11.10;99.90;;;8.97;100.00;100387.84;10519657;28;20085;-82
2022/11/10 01:12:29;;;;;;;48.60;16.43;;;11.10;99.90;;;8.96;100.00;100387.03;10506312;28;20459;-82
2022/11/10 01:17:32;;;;;;;58.43;16.07;;;11.10;99.90;;;8.99;100.00;100386.69;10475454;28;20061;-83
2022/11/10 01:22:35;;;;;;;63.57;18.10;;;11.10;99.90;;;9.01;100.00;100398.00;10480442;28;20068;-83
2022/11/10 01:27:38;;;;;;;52.73;16.80;;;11.20;99.90;;;9.03;100.00;100387.25;10516001;28;20057;-84
2022/11/10 01:32:41;;;;;;;48.90;16.33;;;11.20;99.90;;;9.06;100.00;100386.94;10517995;28;20068;-84
2022/11/10 01:37:44;;;;;;;55.47;16.03;;;11.20;99.90;;;9.09;100.00;100391.94;10499183;28;20284;-83
2022/11/10 01:42:55;;;;;;;58.60;16.33;;;11.30;99.90;;;9.11;100.00;100395.25;10538954;28;20508;-83
2022/11/10 01:48:06;;;;;;;49.60;15.13;;;11.30;99.90;;;9.14;100.00;100396.78;10484346;28;20163;-84
2022/11/10 01:53:19;;;;;;;53.25;17.35;;;11.30;99.90;;;9.13;100.00;100387.16;10471002;28;20065;-84
2022/11/10 01:58:31;;;;;;;60.53;18.23;;;11.30;99.90;;;9.15;100.00;100395.78;10504536;28;20412;-84
2022/11/10 02:03:53;;;;;;;55.43;16.40;;;11.30;99.90;;;9.14;100.00;100397.59;10487422;28;20150;-84
2022/11/10 02:08:59;;;;;;;63.00;16.90;;;11.30;99.90;;;9.14;100.00;100397.59;10471862;28;20061;-84
2022/11/10 02:14:03;;;;;;;39.43;13.50;;;11.30;99.90;;;9.16;100.00;100398.28;10468541;28;20505;-83
2022/11/10 02:19:20;;;;;;;42.50;15.50;;;11.30;99.90;;;9.18;100.00;100398.97;10545508;28;20527;-83
2022/11/10 02:24:23;;;;;;;42.20;14.13;;;11.40;99.90;;;9.16;100.00;100403.56;10478367;28;20061;-84
2022/11/10 02:29:26;;;;;;;32.70;13.10;;;11.40;99.90;;;9.17;100.00;100399.94;10502257;28;20053;-83
2022/11/10 02:34:29;;;;;;;32.60;11.27;;;11.40;99.90;;;9.15;100.00;100401.91;10534178;28;20064;-84
2022/11/10 02:39:32;;;;;;;43.27;14.10;;;11.40;99.90;;;9.14;100.00;100408.22;10452948;28;20107;-84
2022/11/10 02:44:37;;;;;;;44.80;14.27;;;11.40;99.90;;;9.13;100.00;100424.28;10485399;28;20061;-83
2022/11/10 02:49:40;;;;;;;40.53;13.87;;;11.30;99.90;;;9.06;100.00;100416.13;10477429;28;20508;-84
2022/11/10 02:54:43;;;;;;;44.73;15.30;;;11.20;99.90;;;8.97;100.00;100425.78;10525884;28;20061;-84
2022/11/10 02:59:46;;;;;;;47.47;15.60;;;11.20;99.90;;;8.84;100.00;100426.19;10516618;28;20064;-83
2022/11/10 03:04:50;;;;;;;50.37;14.70;;;11.00;99.90;;;8.68;100.00;100444.53;10501402;28;20466;-83
2022/11/10 03:09:53;;;;;;;43.50;13.67;;;10.80;99.90;;;8.58;100.00;100443.81;10477000;28;20057;-84
2022/11/10 03:14:56;;;;;;;40.97;12.03;;;10.70;99.90;;;8.42;100.00;100443.59;10491073;28;20053;-84
2022/11/10 03:19:59;;;;;;;48.43;13.87;;;10.60;99.90;;;8.31;100.00;100450.72;10498029;28;20127;-84
2022/11/10 03:25:03;;;;;;;33.57;10.50;;;10.50;99.90;;;8.23;100.00;100445.34;10481277;28;20512;-83
2022/11/10 03:30:07;;;;;;;32.70;10.50;;;10.40;99.90;;;8.23;100.00;100452.44;10474502;28;20191;-84
2022/11/10 03:35:10;;;;;;;30.37;10.77;;;10.40;99.90;;;8.24;100.00;100459.41;10491104;28;20057;-83
2022/11/10 03:40:13;;;;;;;35.10;11.50;;;10.40;99.90;;;8.29;100.00;100451.88;10516007;28;20064;-83
2022/11/10 03:45:16;;;;;;;40.57;13.93;;;10.50;99.90;;;8.33;100.00;100455.88;10511345;28;20116;-83
2022/11/10 03:50:19;;;;;;;40.30;13.97;;;10.50;99.90;;;8.37;100.00;100461.75;10468333;28;20148;-84
2022/11/10 03:55:22;;;;;;;32.93;11.67;;;10.60;99.90;;;8.41;100.00;100471.06;10487654;28;20555;-83
2022/11/10 04:00:25;;;;;;;36.13;12.23;;;10.60;99.90;;;8.46;100.00;100476.78;10479699;28;20061;-84
2022/11/10 04:10:49;;;;;;;36.42;13.98;;;10.70;99.90;;;8.57;100.00;100469.44;10489614;28;20140;-83
2022/11/10 04:15:52;;;;;;;27.77;11.50;;;10.80;99.90;;;8.66;100.00;100480.97;10468249;28;20060;-83
2022/11/10 04:20:59;;;;;;;34.73;12.57;;;10.80;99.90;;;8.70;100.00;100486.81;10499056;28;20067;-83
2022/11/10 04:31:32;;;;;;;32.53;13.70;;;10.90;99.90;;;8.76;100.00;100497.66;10497983;28;20079;-83
2022/11/10 04:36:38;;;;;;;28.93;12.43;;;10.90;99.90;;;8.80;100.00;100498.16;10499453;28;20060;-83
2022/11/10 04:41:41;;;;;;;33.40;12.53;;;11.00;99.90;;;8.83;100.00;100496.06;10479700;28;20123;-84
2022/11/10 04:46:44;;;;;;;28.23;11.80;;;11.00;99.90;;;8.87;100.00;100501.03;10497458;28;20107;-84
2022/11/10 04:51:47;;;;;;;27.93;12.03;;;11.00;99.90;;;8.90;100.00;100508.72;10497192;28;20053;-85
2022/11/10 04:56:50;;;;;;;33.07;13.67;;;11.00;99.90;;;8.92;100.00;100512.88;10493173;28;20060;-86
2022/11/10 05:01:53;;;;;;;34.50;13.03;;;11.00;99.90;;;8.95;100.00;100511.75;10520469;28;20059;-84
2022/11/10 05:06:56;;;;;;;29.97;12.87;;;11.10;99.90;;;8.99;100.00;100521.06;10492854;28;20053;-84
2022/11/10 05:11:59;;;;;;;25.70;12.23;;;11.10;99.90;;;9.01;100.00;100532.38;10474616;28;20130;-83
2022/11/10 05:17:02;;;;;;;25.00;11.07;;;11.10;99.90;;;9.02;100.00;100531.38;10496837;28;20156;-82
2022/11/10 05:22:06;;;;;;;26.80;11.43;;;11.20;99.90;;;9.04;100.00;100524.94;10489202;28;20061;-82
2022/11/10 05:27:09;;;;;;;28.03;12.47;;;11.20;99.90;;;9.09;100.00;100545.69;10538912;28;20108;-82
2022/11/10 05:32:12;;;;;;;26.40;13.17;;;11.20;99.90;;;9.06;100.00;100546.84;10498291;28;20056;-82
2022/11/10 05:37:15;;;;;;;34.73;14.93;;;11.30;99.90;;;9.08;100.00;100547.50;10519808;28;20056;-82
2022/11/10 05:42:18;;;;;;;26.63;13.20;;;11.30;99.90;;;9.11;100.00;100562.28;10481723;28;20053;-82
2022/11/10 05:47:21;;;;;;;31.10;12.20;;;11.30;99.90;;;9.10;100.00;100568.56;10496234;28;20156;-82
2022/11/10 05:52:24;;;;;;;28.80;14.70;;;11.30;99.90;;;9.08;100.00;100565.25;10464521;28;20144;-82
2022/11/10 05:57:27;;;;;;;24.93;12.67;;;11.30;99.90;;;9.12;100.00;100574.56;10498197;28;20065;-82
2022/11/10 06:02:30;;;;;;;20.67;11.67;;;11.30;99.90;;;9.15;100.00;100584.03;10506931;28;20057;-82
2022/11/10 06:07:33;;;;;;;28.37;10.83;;;11.30;99.90;;;9.15;100.00;100590.16;10506325;28;20088;-82
2022/11/10 06:12:36;;;;;;;21.57;11.07;;;11.40;99.90;;;9.18;100.00;100604.97;10470942;28;20065;-82
2022/11/10 06:17:39;;;;;;;27.90;11.60;;;11.40;99.90;;;9.19;100.00;100615.41;10486792;28;20182;-82
2022/11/10 06:22:42;;;;;;;22.07;11.93;;;11.40;99.90;;;9.21;100.00;100623.22;10467208;28;20505;-82
2022/11/10 06:27:45;;;;;;;20.90;10.20;;;11.40;99.90;;;9.22;100.00;100633.66;10498712;28;20065;-82
2022/11/10 06:32:48;;;;;;;20.37;10.07;;;11.40;99.90;;;9.25;100.00;100638.69;10484109;28;20054;-82
2022/11/10 06:38:06;;;;;;;16.63;9.27;;;11.40;99.90;;;9.29;100.00;100648.00;10489195;28;20084;-82
2022/11/10 06:43:09;;;;;;;22.90;10.80;;;11.50;99.90;;;9.34;100.00;100656.34;10485270;28;20057;-82
2022/11/10 06:48:13;;;;;;;20.77;9.83;;;11.50;99.90;;;9.37;100.00;100661.38;10463130;28;20057;-82
2022/11/10 06:53:16;;;;;;;23.67;10.33;;;11.60;99.90;;;9.45;100.00;100663.25;10503834;28;20107;-82
2022/11/10 06:58:22;;;;;;;23.70;10.30;;;11.60;99.90;;;9.50;100.00;100668.97;10484563;28;20603;-82
2022/11/10 07:03:25;;;;;;;23.03;10.60;;;11.70;99.90;;;9.59;100.00;100683.13;10481239;28;20067;-82
2022/11/10 07:08:28;;;;;;;20.83;10.90;;;11.70;99.90;;;9.68;100.00;100689.38;10520117;28;20053;-81
2022/11/10 07:13:31;;;;;;;20.77;9.83;;;11.80;99.90;;;9.79;100.00;100697.13;10486662;28;20067;-82
2022/11/10 07:18:35;;;;;;;23.40;10.37;;;11.90;99.90;;;9.84;100.00;100694.84;10514250;28;20057;-82
2022/11/10 07:23:39;;;;;;;22.00;10.47;;;12.00;99.90;;;9.87;100.00;100698.03;10498011;28;20504;-82
2022/11/10 07:28:42;;;;;;;22.70;10.83;;;12.00;99.90;;;9.95;100.00;100701.75;10536785;28;20123;-82
2022/11/10 07:33:46;;;;;;;19.20;9.43;;;12.10;99.90;;;10.04;100.00;100706.16;10502103;28;20096;-82
2022/11/10 07:38:56;;;;;;;23.95;10.80;;;12.20;99.90;;;10.10;100.00;100718.81;10534489;27;20057;-82
2022/11/10 07:43:59;;;;;;;24.27;11.53;;;12.30;99.90;;;10.16;100.00;100715.56;10461804;28;20109;-82
2022/11/10 07:49:02;;;;;;;21.53;11.07;;;12.40;99.90;;;10.21;100.00;100726.56;10532398;28;20088;-81
2022/11/10 07:54:05;;;;;;;23.17;11.40;;;12.40;99.90;;;10.24;100.00;100733.41;10477225;28;20057;-82
2022/11/10 07:59:08;;;;;;;20.23;10.10;;;12.40;99.90;;;10.29;100.00;100731.13;10493639;28;20057;-82
2022/11/10 08:04:11;;;;;;;25.43;12.30;;;12.50;99.90;;;10.43;100.00;100743.88;10443451;28;20153;-81
2022/11/10 08:09:14;;;;;;;21.07;11.50;;;12.60;99.90;;;10.57;100.00;100745.16;10469276;28;20057;-81
2022/11/10 08:14:16;;;;;;;16.90;8.37;;;12.80;99.90;;;10.69;100.00;100743.91;10483499;28;20061;-81
2022/11/10 08:19:19;;;;;;;17.07;9.30;;;12.90;99.90;;;10.85;100.00;100751.16;10500625;28;20056;-80
2022/11/10 08:24:22;;;;;;;18.90;10.23;;;12.90;99.90;;;11.04;99.22;100747.47;10484081;28;20088;-80
2022/11/10 08:29:25;;;;;;;18.40;8.63;;;13.10;99.90;;;11.18;99.30;100762.84;10479453;28;20061;-81
2022/11/10 08:34:28;;;;;;;17.30;8.57;;;13.20;99.90;;;11.30;98.39;100758.91;10484591;28;20068;-81
2022/11/10 08:39:31;;;;;;;14.53;7.80;;;13.40;99.90;;;11.43;97.00;100771.78;10501791;28;20143;-81
2022/11/10 08:44:41;;;;;;;14.33;8.40;;;13.50;99.90;;;11.55;95.79;100772.31;10533656;28;20111;-81
2022/11/10 08:49:44;;;;;;;15.67;8.37;;;13.70;99.90;;;11.82;94.25;100780.13;10504455;28;20504;-80
2022/11/10 08:54:47;;;;;;;12.00;7.37;;;13.90;99.90;;;12.16;92.93;100787.19;10484848;28;20100;-80
2022/11/10 08:59:50;;;;;;;14.38;8.23;;;14.20;99.90;;;12.22;90.30;100787.34;10490762;28;20053;-81
2022/11/10 09:04:53;;;;;;;14.63;7.70;;;14.30;99.90;;;12.26;89.40;100806.53;10488891;28;20061;-81
2022/11/10 09:09:56;;;;;;;15.07;6.97;;;14.40;99.90;;;12.31;88.64;100805.03;10474276;28;20057;-80
2022/11/10 09:15:10;;;;;;;12.73;7.07;;;14.40;99.90;;;12.77;87.50;100816.03;10501818;28;20580;-81
2022/11/10 09:20:13;;;;;;;15.00;8.23;;;14.90;99.90;;;13.17;84.17;100824.19;10485385;28;20072;-81
2022/11/10 09:25:17;;;;;;;14.88;8.75;;;15.40;99.90;;;13.30;84.51;100813.84;10506638;28;20057;-81
2022/11/10 09:30:20;;;;;;;13.18;7.57;;;15.50;99.90;;;13.44;83.99;100813.16;10470260;28;20061;-81
2022/11/10 09:35:23;;;;;;;13.13;6.88;;;15.70;99.90;;;13.50;83.74;100820.50;10464280;28;20063;-81
2022/11/10 09:40:33;;;;;;;10.43;6.45;;;15.80;99.90;;;13.47;82.34;100825.31;10452599;28;20060;-81
2022/11/10 09:45:43;;;;;;;12.52;7.15;;;15.70;99.90;;;13.48;82.80;100832.31;10497812;28;20531;-81
2022/11/10 09:51:03;;;;;;;;;;;15.70;99.90;;;13.59;82.40;100835.47;10519222;28;20063;-80
2022/11/10 09:56:18;;;;;;;14.85;7.50;;;15.80;99.90;;;13.55;81.22;100842.13;10506155;28;19955;-80
2022/11/10 10:01:44;;;;;;;19.17;9.40;;;15.80;99.90;;;13.49;81.11;100836.66;10502810;28;20071;-81
2022/11/10 10:07:14;;;;;;;20.20;10.05;;;15.80;99.90;;;13.53;81.94;100825.47;10519752;28;20057;-80
2022/11/10 10:12:43;;;;;;;17.90;10.52;;;15.80;99.90;;;13.60;81.07;100831.78;10481660;28;20521;-81
2022/11/10 10:18:21;;;;;;;16.70;9.73;;;15.90;99.90;;;13.49;80.13;100834.81;10462322;28;20068;-81
2022/11/10 10:23:35;;;;;;;19.75;10.52;;;15.70;99.90;;;13.27;80.44;100838.22;10498873;28;20053;-81
2022/11/10 10:29:09;;;;;;;16.38;9.18;;;15.50;99.90;;;13.23;81.52;100845.72;10463979;28;20457;-81
2022/11/10 10:34:19;;;;;;;18.13;9.43;;;15.50;99.90;;;13.31;80.77;100842.19;10511702;28;20151;-81
2022/11/10 10:39:40;;;;;;;15.10;8.17;;;15.50;99.90;;;13.25;80.57;100849.06;10477544;28;20057;-81
2022/11/10 10:45:12;;;;;;;16.85;8.93;;;15.50;99.90;;;13.23;80.23;100844.91;10514535;28;20060;-81
2022/11/10 10:50:24;;;;;;;;;;;15.40;99.90;;;13.22;80.18;100856.59;10519206;28;20084;-81
2022/11/10 10:55:29;;;;;;;24.40;12.02;;;15.40;99.90;;;13.19;80.75;100859.53;10538485;28;19976;-80
2022/11/10 11:00:43;;;;;;;23.85;13.25;;;15.40;99.90;;;13.09;81.65;100863.22;10516456;28;20057;-81
2022/11/10 11:06:16;;;;;;;26.90;12.90;;;15.40;99.90;;;12.97;82.79;100867.25;10485895;28;20057;-81
2022/11/10 11:11:29;;;;;;;24.52;12.35;;;15.20;99.90;;;12.90;83.42;100860.91;10502860;28;20079;-81
2022/11/10 11:16:48;;;;;;;23.23;12.43;;;15.10;99.90;;;12.74;83.53;100876.91;10485374;28;20430;-81
2022/11/10 11:21:54;;;;;;;27.57;13.53;;;15.00;99.90;;;12.55;83.93;100875.38;10497311;28;20057;-81
2022/11/10 11:27:32;;;;;;;27.10;14.20;;;14.80;99.90;;;12.16;84.35;100886.59;10473981;28;20065;-81
2022/11/10 11:33:32;;;;;;;29.33;14.37;;;14.50;99.90;;;11.83;85.93;100901.63;10487141;28;20059;-81
2022/11/10 11:39:12;;;;;;;23.50;12.23;;;14.10;99.90;;;11.74;86.86;100915.84;10490642;28;20061;-81
2022/11/10 11:44:37;;;;;;;25.27;12.67;;;13.90;99.90;;;11.71;86.66;100916.16;10502100;28;20465;-81
2022/11/10 11:49:52;;;;;;;24.90;11.77;;;13.80;99.90;;;11.62;86.37;100927.75;10502738;28;20106;-81
2022/11/10 11:55:41;;;;;;;23.10;12.23;;;13.70;99.90;;;11.48;86.64;100915.84;10483272;28;20132;-82
2022/11/10 12:01:25;;;;;;;22.07;11.30;;;13.60;99.90;;;11.38;86.47;100921.25;10461772;28;20061;-81
2022/11/10 12:06:53;;;;;;;25.10;12.03;;;13.40;99.90;;;11.31;86.43;100928.19;10500391;28;20144;-81
2022/11/10 12:12:23;;;;;;;24.83;11.77;;;13.30;99.90;;;11.27;87.00;100937.47;10506229;28;20053;-81
2022/11/10 12:18:05;;;;;;;28.23;12.93;;;13.30;99.90;;;11.24;87.70;100927.97;10499993;28;20057;-81
2022/11/10 12:23:17;;;;;;;25.75;12.75;;;13.30;99.90;;;11.18;88.01;100943.72;10500299;28;20378;-81
2022/11/10 12:28:41;;;;;;;28.77;13.07;;;13.20;99.90;;;11.14;88.51;100950.34;10500755;28;20060;-81
2022/11/10 12:34:03;;;;;;;28.70;12.60;;;13.20;99.90;;;11.08;88.99;100958.94;10477866;28;20066;-81
2022/11/10 12:39:30;;;;;;;29.80;13.17;;;13.20;99.90;;;11.04;89.01;100961.06;10443871;28;20064;-81
2022/11/10 12:45:03;;;;;;;25.30;12.17;;;13.10;99.90;;;10.99;88.76;100953.53;10461342;28;20498;-81
2022/11/10 12:50:25;;;;;;;27.70;12.83;;;13.00;99.90;;;10.99;89.00;100969.50;10478433;28;20068;-82
2022/11/10 12:55:41;;;;;;;32.57;15.77;;;13.00;99.90;;;11.03;89.01;100975.34;10499581;28;20089;-81
2022/11/10 13:01:11;;;;;;;30.63;13.67;;;13.00;99.90;;;11.06;89.01;100963.56;10515006;28;20061;-81
2022/11/10 13:06:35;;;;;;;25.07;13.00;;;13.10;99.90;;;11.08;88.76;100970.41;10459799;28;20492;-81
2022/11/10 13:11:40;;;;;;;25.87;13.30;;;13.10;99.90;;;11.12;88.63;100976.25;10482634;28;20464;-82
2022/11/10 13:16:43;;;;;;;26.17;13.30;;;13.10;99.90;;;11.16;88.56;100974.97;10499482;28;20052;-80
2022/11/10 13:21:52;;;;;;;27.43;14.10;;;13.20;99.90;;;11.17;88.51;100992.59;10497657;28;20067;-81
2022/11/10 13:27:00;;;;;;;26.17;13.30;;;13.20;99.90;;;11.19;88.83;100983.47;10499026;28;20071;-81
2022/11/10 13:32:12;;;;;;;31.87;14.47;;;13.20;99.90;;;11.19;89.00;100985.31;10479871;28;20057;-81
2022/11/10 13:37:33;;;;;;;29.47;12.60;;;13.30;99.90;;;11.20;89.25;100986.97;10488293;28;20084;-81
2022/11/10 13:42:36;;;;;;;28.80;13.77;;;13.30;99.90;;;11.19;89.01;100995.94;10506048;28;20475;-81
2022/11/10 13:48:06;;;;;;;26.20;12.87;;;13.30;99.90;;;11.15;88.41;100991.91;10489671;28;20061;-81
2022/11/10 13:53:28;;;;;;;25.70;12.93;;;13.20;99.90;;;11.15;88.49;100997.22;10490543;28;20064;-81
2022/11/10 13:58:33;;;;;;;28.23;13.07;;;13.20;99.90;;;11.12;88.68;101002.88;10502306;28;20061;-81
2022/11/10 14:03:46;;;;;;;27.17;12.90;;;13.20;99.90;;;11.09;89.19;101003.16;10488298;28;20063;-81
2022/11/10 14:08:58;;;;;;;29.03;13.17;;;13.10;99.90;;;11.01;89.92;101014.56;10504694;28;20100;-81
2022/11/10 14:14:31;;;;;;;30.13;14.63;;;13.10;99.90;;;10.93;90.31;101012.66;10538620;28;20057;-81
2022/11/10 14:19:44;;;;;;;27.17;12.70;;;13.00;99.90;;;10.89;90.48;101018.41;10484017;28;20139;-82
2022/11/10 14:25:16;;;;;;;28.03;14.10;;;12.90;99.90;;;10.85;90.81;101015.22;10521928;28;20140;-81
2022/11/10 14:30:23;;;;;;;30.40;13.38;;;12.90;99.90;;;10.83;91.38;101019.84;10504100;28;20065;-82
2022/11/10 14:35:30;;;;;;;30.90;13.90;;;12.80;99.90;;;10.80;91.53;101020.16;10504183;28;20061;-83
2022/11/10 14:40:33;;;;;;;29.13;13.47;;;12.80;99.90;;;10.77;91.69;101023.09;10497353;28;20057;-82
2022/11/10 14:45:37;;;;;;;27.97;13.40;;;12.80;99.90;;;10.75;91.89;101021.59;10503012;28;20096;-82
2022/11/10 14:50:40;;;;;;;28.27;13.73;;;12.70;99.90;;;10.72;91.98;101025.38;10481294;28;20053;-83
2022/11/10 14:55:45;;;;;;;26.73;13.27;;;12.70;99.90;;;10.72;91.98;101025.38;10473296;28;20504;-82
2022/11/10 15:00:55;;;;;;;26.43;12.60;;;12.70;99.90;;;10.72;91.93;101036.84;10518164;28;20203;-83
2022/11/10 15:05:59;;;;;;;26.80;11.97;;;12.70;99.90;;;10.74;91.68;101034.06;10445427;28;20065;-82
2022/11/10 15:11:02;;;;;;;26.00;12.27;;;12.70;99.90;;;10.77;91.62;101040.88;10500051;28;20091;-82
2022/11/10 15:16:26;;;;;;;25.60;12.03;;;12.70;99.90;;;10.77;91.71;101048.84;10502352;28;20505;-82
2022/11/10 15:21:32;;;;;;;28.43;12.63;;;12.70;99.90;;;10.76;91.94;101069.28;10517247;28;20118;-81
2022/11/10 15:26:39;;;;;;;30.13;13.57;;;12.70;99.90;;;10.77;91.96;101070.13;10518309;28;20147;-82
2022/11/10 15:31:43;;;;;;;24.93;12.97;;;12.70;99.90;;;10.75;92.03;101072.94;10489976;28;20583;-82
2022/11/10 15:36:46;;;;;;;27.23;12.67;;;12.70;99.90;;;10.72;92.25;101073.22;10498361;28;20135;-83
2022/11/10 15:41:55;;;;;;;26.33;11.97;;;12.70;99.90;;;10.67;92.76;101086.09;10466971;28;20057;-82
2022/11/10 15:46:58;;;;;;;24.70;12.90;;;12.60;99.90;;;10.62;92.95;101099.88;10479286;28;20185;-81
2022/11/10 15:52:23;;;;;;;29.70;13.97;;;12.60;99.90;;;10.57;93.14;101102.13;10501698;28;20057;-81
2022/11/10 15:57:26;;;;;;;32.37;14.50;;;12.50;99.90;;;10.53;93.68;101118.50;10474108;28;20091;-84
2022/11/10 16:02:29;;;;;;;28.83;13.50;;;12.50;99.90;;;10.47;93.85;101127.03;10495294;28;20061;-83
2022/11/10 16:07:33;;;;;;;25.87;12.00;;;12.40;99.90;;;10.39;94.26;101125.94;10476017;28;20149;-82
2022/11/10 16:12:36;;;;;;;26.53;13.27;;;12.40;99.90;;;10.34;94.63;101128.19;10474983;28;20057;-81
2022/11/10 16:17:40;;;;;;;29.50;12.90;;;12.30;99.90;;;10.32;94.84;101146.09;10463490;28;20088;-82
2022/11/10 16:22:43;;;;;;;26.53;12.70;;;12.30;99.90;;;10.33;94.80;101160.22;10495894;28;20057;-82
2022/11/10 16:27:46;;;;;;;26.00;11.83;;;12.30;99.90;;;10.31;94.88;101155.03;10524681;28;20542;-85
2022/11/10 16:32:49;;;;;;;26.37;13.00;;;12.30;99.90;;;10.27;94.99;101166.94;10500725;28;20063;-85
2022/11/10 16:37:53;;;;;;;21.93;11.73;;;12.20;99.90;;;10.22;95.11;101166.50;10479799;28;20157;-84
2022/11/10 16:42:56;;;;;;;23.90;12.27;;;12.20;99.90;;;10.19;95.45;101182.69;10497149;28;20063;-83
2022/11/10 16:47:59;;;;;;;27.73;11.73;;;12.20;99.90;;;10.14;95.56;101190.28;10493492;28;20061;-85
2022/11/10 16:53:05;;;;;;;24.57;12.13;;;12.10;99.90;;;10.08;95.74;101194.34;10469571;28;20057;-84
2022/11/10 16:58:08;;;;;;;27.10;11.83;;;12.00;99.90;;;10.02;95.79;101210.84;10495630;28;20062;-84
2022/11/10 17:03:23;;;;;;;26.80;12.77;;;12.00;99.90;;;9.96;96.17;101229.97;10494344;28;20053;-84
2022/11/10 17:08:32;;;;;;;23.67;10.97;;;12.00;99.90;;;9.94;96.29;101234.56;10504643;28;20417;-86
2022/11/10 17:13:35;;;;;;;26.03;12.27;;;11.90;99.90;;;9.86;95.98;101256.50;10473913;28;20452;-86
2022/11/10 17:18:39;;;;;;;25.90;11.70;;;11.90;99.90;;;9.81;96.11;101240.16;10504605;28;20386;-84
2022/11/10 17:23:42;;;;;;;27.00;12.20;;;11.80;99.90;;;9.83;95.88;101253.28;10486712;28;20099;-86
2022/11/10 17:28:45;;;;;;;21.00;11.00;;;11.80;99.90;;;9.79;95.48;101263.34;10504785;28;20092;-84
2022/11/10 17:33:48;;;;;;;23.27;12.10;;;11.70;99.90;;;9.75;95.52;101277.03;10497669;28;20130;-84
2022/11/10 17:38:51;;;;;;;23.37;11.40;;;11.70;99.90;;;9.69;95.55;101289.00;10537404;28;20061;-85
2022/11/10 17:43:55;;;;;;;26.80;13.43;;;11.70;99.90;;;9.66;95.51;101294.59;10505860;28;20115;-83
2022/11/10 17:48:58;;;;;;;29.70;13.87;;;11.60;99.90;;;9.62;95.28;101303.81;10525209;28;20072;-83
2022/11/10 17:54:16;;;;;;;29.20;12.67;;;11.60;99.90;;;9.60;95.35;101306.59;10489528;28;20069;-83
2022/11/10 17:59:19;;;;;;;23.77;12.20;;;11.60;99.90;;;9.55;95.18;101300.00;10519232;28;20053;-83
2022/11/10 18:04:22;;;;;;;24.13;11.57;;;11.50;99.90;;;9.54;95.04;101309.78;10483950;28;20061;-83
2022/11/10 18:09:25;;;;;;;22.37;11.10;;;11.50;99.90;;;9.51;94.61;101319.81;10508062;28;20111;-84
2022/11/10 18:14:29;;;;;;;21.43;10.57;;;11.50;99.90;;;9.43;94.77;101317.84;10500672;28;20057;-84
2022/11/10 18:19:32;;;;;;;21.40;10.10;;;11.50;99.90;;;9.34;94.56;101319.47;10531806;28;20059;-84
2022/11/10 18:24:35;;;;;;;26.60;13.10;;;11.40;99.90;;;9.30;94.61;101336.63;10519597;28;20448;-84
2022/11/10 18:29:37;;;;;;;22.37;10.93;;;11.30;99.90;;;9.27;94.71;101346.66;10504308;28;20073;-84
2022/11/10 18:34:40;;;;;;;22.90;10.77;;;11.30;99.90;;;9.24;94.70;101355.72;10472325;28;20057;-83
2022/11/10 18:39:44;;;;;;;22.83;10.43;;;11.20;99.90;;;9.21;94.57;101366.59;10478158;28;20056;-84
2022/11/10 18:44:50;;;;;;;20.43;10.03;;;11.20;99.90;;;9.20;94.28;101372.03;10467595;28;20061;-84
2022/11/10 18:49:53;;;;;;;18.83;9.90;;;11.20;99.90;;;9.14;94.01;101365.44;10529021;28;20475;-84
2022/11/10 18:54:56;;;;;;;21.43;9.67;;;11.20;99.90;;;9.10;93.64;101386.06;10515225;28;20065;-84
2022/11/10 18:59:59;;;;;;;16.73;8.83;;;11.10;99.90;;;9.08;93.62;101395.13;10501910;28;20489;-84
2022/11/10 19:05:03;;;;;;;16.47;8.73;;;11.10;99.90;;;9.00;93.67;101389.63;10487192;28;20512;-84
2022/11/10 19:10:07;;;;;;;15.57;7.43;;;11.10;99.90;;;8.94;93.54;101403.41;10485759;28;20057;-84
2022/11/10 19:15:10;;;;;;;18.30;8.67;;;11.00;99.90;;;8.89;93.82;101401.13;10531525;28;20060;-86
2022/11/10 19:20:15;;;;;;;16.50;8.23;;;10.90;99.90;;;8.92;93.72;101407.97;10486737;28;20057;-85
2022/11/10 19:25:17;;;;;;;15.63;7.57;;;11.00;99.90;;;8.96;93.29;101412.06;10517214;28;20064;-85
2022/11/10 19:30:20;;;;;;;15.97;8.23;;;11.00;99.90;;;8.92;92.83;101413.28;10517062;28;20064;-86
2022/11/10 19:35:23;;;;;;;18.50;8.77;;;10.90;99.90;;;8.80;92.63;101423.91;10488898;28;20061;-84
2022/11/10 19:40:26;;;;;;;16.07;7.80;;;10.80;99.90;;;8.65;92.71;101430.50;10495050;28;20057;-86
2022/11/10 19:45:29;;;;;;;15.87;7.70;;;10.70;99.90;;;8.52;93.13;101430.66;10496642;28;20057;-86
2022/11/10 19:50:32;;;;;;;14.57;8.30;;;10.60;99.90;;;8.44;93.39;101432.22;10495831;28;20064;-86
2022/11/10 19:55:35;;;;;;;17.67;7.50;;;10.50;99.90;;;8.29;93.34;101437.75;10480446;28;20067;-84
2022/11/10 20:00:38;;;;;;;18.33;9.03;;;10.40;99.90;;;8.12;93.58;101438.25;10486333;28;20459;-84
2022/11/10 20:05:45;;;;;;;31.87;12.77;;;10.30;99.90;;;7.97;94.16;101442.09;10494138;28;20508;-84
2022/11/10 20:10:49;;;;;;;18.70;9.60;;;10.10;99.90;;;7.97;94.96;101450.03;10476668;28;20053;-84
2022/11/10 20:15:52;;;;;;;19.77;7.97;;;10.10;99.90;;;8.01;95.32;101454.16;10482429;28;20067;-84
2022/11/10 20:21:00;;;;;;;22.13;9.70;;;10.10;99.90;;;7.94;95.05;101459.09;10471622;28;20142;-84
2022/11/10 20:26:13;;;;;;;27.90;13.83;;;10.10;99.90;;;7.82;94.96;101464.50;10502271;28;20065;-86
2022/11/10 20:31:23;;;;;;;35.73;19.03;;;10.00;99.90;;;7.66;95.42;101478.06;10469054;28;20152;-87
2022/11/10 20:36:29;;;;;;;19.07;9.77;;;9.80;99.90;;;7.49;95.68;101484.63;10500152;28;20063;-87
2022/11/10 20:41:32;;;;;;;14.43;7.57;;;9.70;99.90;;;7.34;96.42;101484.00;10476733;28;20068;-86
2022/11/10 20:46:35;;;;;;;15.03;7.20;;;9.50;99.90;;;7.28;96.96;101496.84;10499736;28;20813;-87
2022/11/10 20:51:59;;;;;;;14.43;7.37;;;9.40;99.90;;;7.18;97.07;101492.22;10483516;28;20065;-87
2022/11/10 20:57:02;;;;;;;16.00;8.23;;;9.30;99.90;;;7.14;97.39;101506.66;10505339;28;20111;-86
2022/11/10 21:02:06;;;;;;;15.10;8.13;;;9.30;99.90;;;7.08;97.63;101503.63;10478452;28;20100;-88